Date,TemperatureHighF,TemperatureAvgF,TemperatureLowF,DewpointHighF,DewpointAvgF,DewpointLowF,HumidityHigh,HumidityAvg,HumidityLow,PressureMaxIn,PressureMinIn,WindSpeedMaxMPH,WindSpeedAvgMPH,GustSpeedMaxMPH,PrecipitationSumIn
2013-11-1,61.3,52.9,47.4,58.2,47.3,42.1,95,81,72,29.73,29.24,42,6,50,0.25
2013-11-2,47.3,44.8,41.5,44.5,42.7,39.6,96,93,84,30.07,29.70,22,2,22,1.31
2013-11-3,45.1,37.9,30.0,40.0,32.7,25.8,96,82,61,30.54,30.07,20,2,20,0.00
2013-11-4,45.6,37.5,30.5,28.0,23.9,20.8,82,59,40,30.60,30.44,36,6,36,0.00
2013-11-5,58.7,50.6,42.7,44.2,37.2,27.7,72,60,53,30.48,30.31,34,6,34,0.00
2013-11-6,65.7,55.9,48.9,56.5,45.7,35.1,95,70,56,30.31,29.92,40,8,42,0.32
2013-11-7,48.9,41.4,36.6,47.2,35.9,27.8,96,81,61,30.17,29.96,30,5,30,0.41
2013-11-8,41.1,37.7,32.7,34.1,29.4,26.0,94,72,56,30.34,30.13,24,5,24,0.10
2013-11-9,57.3,46.4,33.3,43.9,34.2,26.9,78,63,45,30.31,29.92,54,8,54,0.02
2013-11-10,52.8,45.3,41.3,42.7,34.5,28.4,74,66,55,30.31,29.96,44,9,44,0.00
2013-11-11,47.1,38.9,30.0,39.7,32.6,28.7,96,79,55,30.30,30.07,14,4,40,0.33
2013-11-12,33.9,30.5,28.4,29.2,25.5,20.0,96,82,66,30.56,30.27,24,3,24,0.07
2013-11-13,36.9,31.9,28.0,24.6,21.3,17.8,80,65,51,30.59,30.32,36,5,36,0.10
2013-11-14,50.4,39.8,30.1,24.5,21.9,19.3,70,50,31,30.33,30.14,34,7,36,0.18
2013-11-15,50.9,45.6,38.8,32.7,26.1,22.0,60,47,37,30.18,30.11,34,6,34,0.00
2013-11-16,59.7,51.3,42.2,51.4,43.6,32.2,82,75,60,30.24,29.95,40,8,40,0.00
2013-11-17,62.5,58.7,51.6,57.3,53.3,41.1,93,82,65,29.95,29.43,66,13,66,0.41
2013-11-18,51.5,42.6,35.5,41.8,34.3,25.3,79,72,66,30.15,29.58,56,12,56,0.00
2013-11-19,38.0,34.6,27.4,28.0,26.2,24.1,88,72,59,30.48,30.15,20,3,20,0.00
2013-11-20,46.8,36.4,25.2,25.7,21.0,16.9,91,58,31,30.52,30.38,34,4,34,0.00
2013-11-21,45.5,40.7,37.4,41.4,31.7,17.8,91,72,41,30.43,30.25,40,7,40,0.07
2013-11-22,48.0,43.2,35.2,47.2,41.3,29.8,98,93,80,30.37,30.16,32,5,32,0.27
2013-11-23,35.1,29.4,21.1,29.9,20.8,6.2,90,70,53,30.47,30.26,34,9,40,0.00
2013-11-24,23.4,21.6,20.4,16.3,11.7,5.7,78,65,51,30.61,30.46,44,8,44,0.00
2013-11-25,34.7,25.9,17.8,24.2,15.6,12.3,83,66,45,30.54,30.23,40,7,40,0.00
2013-11-26,34.3,32.1,30.8,30.8,27.9,20.3,96,85,58,30.24,29.90,22,2,22,0.00
2013-11-27,32.4,27.5,24.2,30.7,22.4,16.2,95,81,68,30.20,29.86,38,6,38,0.00
2013-11-28,28.4,25.3,21.3,21.2,18.6,15.2,89,75,64,30.49,30.20,24,4,26,0.00
2013-11-29,31.9,27.9,24.9,24.5,21.9,19.5,86,78,68,30.73,30.49,14,1,14,0.04
2013-11-30,40.8,32.6,26.5,28.9,23.9,19.1,77,70,57,30.68,30.22,36,8,36,0.06